sensor_id;sensor_type;location;lat;lon;timestamp;P1;durP1;ratioP1;P2;durP2;ratioP2
20251;SDS011;10284;58.364;15.550;2022-10-16T00:01:45;9.70;;;6.40;;
20251;SDS011;10284;58.364;15.550;2022-10-16T00:04:11;7.32;;;5.70;;
20251;SDS011;10284;58.364;15.550;2022-10-16T00:06:37;8.07;;;5.70;;
20251;SDS011;10284;58.364;15.550;2022-10-16T00:09:03;6.28;;;5.40;;
20251;SDS011;10284;58.364;15.550;2022-10-16T00:11:31;9.77;;;5.45;;
20251;SDS011;10284;58.364;15.550;2022-10-16T00:13:59;7.72;;;6.22;;
20251;SDS011;10284;58.364;15.550;2022-10-16T00:16:25;8.73;;;6.45;;
20251;SDS011;10284;58.364;15.550;2022-10-16T00:18:51;11.77;;;6.03;;
20251;SDS011;10284;58.364;15.550;2022-10-16T00:21:18;7.60;;;6.22;;
20251;SDS011;10284;58.364;15.550;2022-10-16T00:23:45;10.95;;;5.63;;
20251;SDS011;10284;58.364;15.550;2022-10-16T00:26:14;10.02;;;6.05;;
20251;SDS011;10284;58.364;15.550;2022-10-16T00:28:41;7.25;;;6.03;;
20251;SDS011;10284;58.364;15.550;2022-10-16T00:31:07;7.57;;;5.35;;
20251;SDS011;10284;58.364;15.550;2022-10-16T00:33:34;6.07;;;5.10;;
20251;SDS011;10284;58.364;15.550;2022-10-16T00:36:01;8.90;;;5.47;;
20251;SDS011;10284;58.364;15.550;2022-10-16T00:38:27;9.98;;;5.60;;
20251;SDS011;10284;58.364;15.550;2022-10-16T00:40:52;7.90;;;5.10;;
20251;SDS011;10284;58.364;15.550;2022-10-16T00:49:18;7.05;;;4.78;;
20251;SDS011;10284;58.364;15.550;2022-10-16T00:51:49;8.98;;;5.50;;
20251;SDS011;10284;58.364;15.550;2022-10-16T00:54:25;7.28;;;5.28;;
20251;SDS011;10284;58.364;15.550;2022-10-16T00:56:51;7.75;;;6.00;;
20251;SDS011;10284;58.364;15.550;2022-10-16T00:59:19;8.70;;;5.97;;
20251;SDS011;10284;58.364;15.550;2022-10-16T01:01:49;10.88;;;6.22;;
20251;SDS011;10284;58.364;15.550;2022-10-16T01:04:15;9.85;;;6.03;;
20251;SDS011;10284;58.364;15.550;2022-10-16T01:16:05;8.00;;;5.88;;
20251;SDS011;10284;58.364;15.550;2022-10-16T01:18:36;7.05;;;4.50;;
20251;SDS011;10284;58.364;15.550;2022-10-16T01:21:05;11.23;;;5.05;;
20251;SDS011;10284;58.364;15.550;2022-10-16T01:23:59;8.07;;;4.85;;
20251;SDS011;10284;58.364;15.550;2022-10-16T01:35:05;7.30;;;4.70;;
20251;SDS011;10284;58.364;15.550;2022-10-16T01:37:38;7.93;;;4.95;;
20251;SDS011;10284;58.364;15.550;2022-10-16T01:40:10;12.13;;;5.22;;
20251;SDS011;10284;58.364;15.550;2022-10-16T01:42:44;6.82;;;5.38;;
20251;SDS011;10284;58.364;15.550;2022-10-16T01:47:38;11.02;;;5.82;;
20251;SDS011;10284;58.364;15.550;2022-10-16T01:50:04;7.47;;;4.95;;
20251;SDS011;10284;58.364;15.550;2022-10-16T01:52:31;8.60;;;5.60;;
20251;SDS011;10284;58.364;15.550;2022-10-16T01:55:00;10.35;;;5.97;;
20251;SDS011;10284;58.364;15.550;2022-10-16T01:57:27;6.18;;;5.50;;
20251;SDS011;10284;58.364;15.550;2022-10-16T01:59:56;12.48;;;6.05;;
20251;SDS011;10284;58.364;15.550;2022-10-16T02:02:26;8.75;;;6.38;;
20251;SDS011;10284;58.364;15.550;2022-10-16T02:04:55;10.73;;;6.05;;
20251;SDS011;10284;58.364;15.550;2022-10-16T02:07:24;9.18;;;5.93;;
20251;SDS011;10284;58.364;15.550;2022-10-16T02:09:49;7.68;;;5.68;;
20251;SDS011;10284;58.364;15.550;2022-10-16T02:12:18;8.45;;;5.72;;
20251;SDS011;10284;58.364;15.550;2022-10-16T02:14:52;8.27;;;6.28;;
20251;SDS011;10284;58.364;15.550;2022-10-16T02:17:18;10.50;;;6.22;;
20251;SDS011;10284;58.364;15.550;2022-10-16T02:19:45;8.52;;;6.10;;
20251;SDS011;10284;58.364;15.550;2022-10-16T02:22:22;9.80;;;5.80;;
20251;SDS011;10284;58.364;15.550;2022-10-16T02:24:53;10.82;;;6.80;;
20251;SDS011;10284;58.364;15.550;2022-10-16T02:30:05;16.05;;;6.30;;
20251;SDS011;10284;58.364;15.550;2022-10-16T02:32:34;10.40;;;7.10;;
20251;SDS011;10284;58.364;15.550;2022-10-16T02:35:02;10.57;;;6.90;;
20251;SDS011;10284;58.364;15.550;2022-10-16T02:37:28;12.98;;;7.20;;
20251;SDS011;10284;58.364;15.550;2022-10-16T02:39:54;12.55;;;7.40;;
20251;SDS011;10284;58.364;15.550;2022-10-16T02:42:26;10.95;;;7.50;;
20251;SDS011;10284;58.364;15.550;2022-10-16T02:44:53;13.23;;;7.28;;
20251;SDS011;10284;58.364;15.550;2022-10-16T02:47:18;11.68;;;7.30;;
20251;SDS011;10284;58.364;15.550;2022-10-16T02:49:43;12.90;;;7.25;;
20251;SDS011;10284;58.364;15.550;2022-10-16T02:52:09;10.32;;;7.22;;
20251;SDS011;10284;58.364;15.550;2022-10-16T02:54:34;12.45;;;7.63;;
20251;SDS011;10284;58.364;15.550;2022-10-16T02:57:00;13.60;;;7.20;;
20251;SDS011;10284;58.364;15.550;2022-10-16T02:59:25;12.77;;;7.30;;
20251;SDS011;10284;58.364;15.550;2022-10-16T03:01:51;12.18;;;7.18;;
20251;SDS011;10284;58.364;15.550;2022-10-16T03:04:16;12.70;;;6.97;;
20251;SDS011;10284;58.364;15.550;2022-10-16T03:06:41;10.20;;;7.07;;
20251;SDS011;10284;58.364;15.550;2022-10-16T03:09:07;11.40;;;7.63;;
20251;SDS011;10284;58.364;15.550;2022-10-16T03:11:33;11.82;;;7.60;;
20251;SDS011;10284;58.364;15.550;2022-10-16T03:13:58;10.43;;;7.40;;
20251;SDS011;10284;58.364;15.550;2022-10-16T03:16:23;10.77;;;7.57;;
20251;SDS011;10284;58.364;15.550;2022-10-16T03:18:49;13.00;;;7.78;;
20251;SDS011;10284;58.364;15.550;2022-10-16T03:21:15;13.43;;;7.57;;
20251;SDS011;10284;58.364;15.550;2022-10-16T03:23:40;13.77;;;8.43;;
20251;SDS011;10284;58.364;15.550;2022-10-16T03:26:05;10.30;;;7.85;;
20251;SDS011;10284;58.364;15.550;2022-10-16T03:28:31;11.30;;;7.82;;
20251;SDS011;10284;58.364;15.550;2022-10-16T03:30:56;12.40;;;7.15;;
20251;SDS011;10284;58.364;15.550;2022-10-16T03:33:22;11.07;;;7.55;;
20251;SDS011;10284;58.364;15.550;2022-10-16T03:35:51;10.45;;;8.13;;
20251;SDS011;10284;58.364;15.550;2022-10-16T03:38:18;9.30;;;7.13;;
20251;SDS011;10284;58.364;15.550;2022-10-16T03:40:43;11.35;;;7.35;;
20251;SDS011;10284;58.364;15.550;2022-10-16T03:43:08;14.88;;;8.30;;
20251;SDS011;10284;58.364;15.550;2022-10-16T03:45:34;12.07;;;8.18;;
20251;SDS011;10284;58.364;15.550;2022-10-16T03:47:59;14.75;;;8.13;;
20251;SDS011;10284;58.364;15.550;2022-10-16T03:50:24;12.18;;;7.53;;
20251;SDS011;10284;58.364;15.550;2022-10-16T03:52:50;14.00;;;8.13;;
20251;SDS011;10284;58.364;15.550;2022-10-16T03:55:15;10.82;;;7.63;;
20251;SDS011;10284;58.364;15.550;2022-10-16T03:57:41;16.15;;;8.25;;
20251;SDS011;10284;58.364;15.550;2022-10-16T04:00:06;11.68;;;8.00;;
20251;SDS011;10284;58.364;15.550;2022-10-16T04:02:32;11.27;;;7.80;;
20251;SDS011;10284;58.364;15.550;2022-10-16T04:04:57;9.32;;;7.18;;
20251;SDS011;10284;58.364;15.550;2022-10-16T04:07:23;10.20;;;7.38;;
20251;SDS011;10284;58.364;15.550;2022-10-16T04:09:48;13.10;;;8.13;;
20251;SDS011;10284;58.364;15.550;2022-10-16T04:12:14;12.57;;;8.20;;
20251;SDS011;10284;58.364;15.550;2022-10-16T04:14:39;11.30;;;7.75;;
20251;SDS011;10284;58.364;15.550;2022-10-16T04:17:04;12.32;;;8.90;;
20251;SDS011;10284;58.364;15.550;2022-10-16T04:19:30;16.08;;;8.70;;
20251;SDS011;10284;58.364;15.550;2022-10-16T04:21:55;12.57;;;8.45;;
20251;SDS011;10284;58.364;15.550;2022-10-16T04:24:21;12.27;;;8.23;;
20251;SDS011;10284;58.364;15.550;2022-10-16T04:26:46;12.57;;;8.60;;
20251;SDS011;10284;58.364;15.550;2022-10-16T04:29:11;12.95;;;8.32;;
20251;SDS011;10284;58.364;15.550;2022-10-16T04:31:37;14.18;;;9.13;;
20251;SDS011;10284;58.364;15.550;2022-10-16T04:34:02;19.08;;;8.63;;
20251;SDS011;10284;58.364;15.550;2022-10-16T04:36:27;11.23;;;7.93;;
20251;SDS011;10284;58.364;15.550;2022-10-16T04:38:53;13.70;;;8.80;;
20251;SDS011;10284;58.364;15.550;2022-10-16T04:41:18;11.40;;;8.35;;
20251;SDS011;10284;58.364;15.550;2022-10-16T04:43:44;11.50;;;8.32;;
20251;SDS011;10284;58.364;15.550;2022-10-16T04:46:09;14.40;;;8.13;;
20251;SDS011;10284;58.364;15.550;2022-10-16T04:48:35;11.75;;;8.45;;
20251;SDS011;10284;58.364;15.550;2022-10-16T04:51:00;11.15;;;8.40;;
20251;SDS011;10284;58.364;15.550;2022-10-16T04:53:26;11.57;;;9.10;;
20251;SDS011;10284;58.364;15.550;2022-10-16T04:55:51;14.27;;;9.05;;
20251;SDS011;10284;58.364;15.550;2022-10-16T04:58:16;12.60;;;9.20;;
20251;SDS011;10284;58.364;15.550;2022-10-16T05:00:42;12.60;;;8.63;;
20251;SDS011;10284;58.364;15.550;2022-10-16T05:03:08;10.75;;;7.80;;
20251;SDS011;10284;58.364;15.550;2022-10-16T05:05:35;12.45;;;8.43;;
20251;SDS011;10284;58.364;15.550;2022-10-16T05:08:01;14.35;;;8.25;;
20251;SDS011;10284;58.364;15.550;2022-10-16T05:10:26;11.23;;;8.02;;
20251;SDS011;10284;58.364;15.550;2022-10-16T05:12:52;14.05;;;7.82;;
20251;SDS011;10284;58.364;15.550;2022-10-16T05:15:17;12.75;;;8.30;;
20251;SDS011;10284;58.364;15.550;2022-10-16T05:17:43;10.95;;;7.78;;
20251;SDS011;10284;58.364;15.550;2022-10-16T05:20:09;13.95;;;8.48;;
20251;SDS011;10284;58.364;15.550;2022-10-16T05:22:34;12.23;;;7.97;;
20251;SDS011;10284;58.364;15.550;2022-10-16T05:25:00;9.98;;;7.60;;
20251;SDS011;10284;58.364;15.550;2022-10-16T05:27:25;10.75;;;7.80;;
20251;SDS011;10284;58.364;15.550;2022-10-16T05:29:51;12.38;;;8.10;;
20251;SDS011;10284;58.364;15.550;2022-10-16T05:32:16;9.73;;;7.80;;
20251;SDS011;10284;58.364;15.550;2022-10-16T05:34:42;15.27;;;8.85;;
20251;SDS011;10284;58.364;15.550;2022-10-16T05:37:10;12.38;;;8.13;;
20251;SDS011;10284;58.364;15.550;2022-10-16T05:39:36;15.70;;;8.68;;
20251;SDS011;10284;58.364;15.550;2022-10-16T05:42:02;13.35;;;8.10;;
20251;SDS011;10284;58.364;15.550;2022-10-16T05:44:28;14.30;;;8.55;;
20251;SDS011;10284;58.364;15.550;2022-10-16T05:46:53;11.63;;;8.60;;
20251;SDS011;10284;58.364;15.550;2022-10-16T05:49:19;12.38;;;8.35;;
20251;SDS011;10284;58.364;15.550;2022-10-16T05:51:44;11.57;;;7.93;;
20251;SDS011;10284;58.364;15.550;2022-10-16T05:54:10;12.57;;;7.85;;
20251;SDS011;10284;58.364;15.550;2022-10-16T05:56:35;10.55;;;7.38;;
20251;SDS011;10284;58.364;15.550;2022-10-16T05:59:00;9.93;;;7.40;;
20251;SDS011;10284;58.364;15.550;2022-10-16T06:01:26;9.15;;;7.80;;
20251;SDS011;10284;58.364;15.550;2022-10-16T06:03:51;10.27;;;7.22;;
20251;SDS011;10284;58.364;15.550;2022-10-16T06:06:19;11.77;;;7.18;;
20251;SDS011;10284;58.364;15.550;2022-10-16T06:08:45;9.27;;;7.10;;
20251;SDS011;10284;58.364;15.550;2022-10-16T06:11:12;10.80;;;7.30;;
20251;SDS011;10284;58.364;15.550;2022-10-16T06:13:42;8.20;;;6.80;;
20251;SDS011;10284;58.364;15.550;2022-10-16T06:16:08;11.57;;;7.03;;
20251;SDS011;10284;58.364;15.550;2022-10-16T06:18:34;11.73;;;7.55;;
20251;SDS011;10284;58.364;15.550;2022-10-16T06:21:06;9.18;;;7.18;;
20251;SDS011;10284;58.364;15.550;2022-10-16T06:23:32;9.93;;;7.13;;
20251;SDS011;10284;58.364;15.550;2022-10-16T06:26:07;13.82;;;7.30;;
20251;SDS011;10284;58.364;15.550;2022-10-16T06:28:36;11.63;;;7.85;;
20251;SDS011;10284;58.364;15.550;2022-10-16T06:31:03;9.65;;;7.20;;
20251;SDS011;10284;58.364;15.550;2022-10-16T06:33:29;12.80;;;7.00;;
20251;SDS011;10284;58.364;15.550;2022-10-16T06:35:59;10.35;;;7.30;;
20251;SDS011;10284;58.364;15.550;2022-10-16T06:38:29;10.60;;;6.82;;
20251;SDS011;10284;58.364;15.550;2022-10-16T06:40:54;10.27;;;6.82;;
20251;SDS011;10284;58.364;15.550;2022-10-16T06:43:20;10.45;;;7.20;;
20251;SDS011;10284;58.364;15.550;2022-10-16T06:45:55;10.52;;;7.05;;
20251;SDS011;10284;58.364;15.550;2022-10-16T06:48:21;9.73;;;7.05;;
20251;SDS011;10284;58.364;15.550;2022-10-16T06:50:57;9.80;;;6.57;;
20251;SDS011;10284;58.364;15.550;2022-10-16T06:53:44;7.45;;;6.45;;
20251;SDS011;10284;58.364;15.550;2022-10-16T06:56:14;11.52;;;6.10;;
20251;SDS011;10284;58.364;15.550;2022-10-16T06:58:41;11.57;;;6.53;;
20251;SDS011;10284;58.364;15.550;2022-10-16T07:01:07;10.32;;;6.30;;
20251;SDS011;10284;58.364;15.550;2022-10-16T07:03:35;10.30;;;6.45;;
20251;SDS011;10284;58.364;15.550;2022-10-16T07:06:02;11.90;;;6.30;;
20251;SDS011;10284;58.364;15.550;2022-10-16T07:08:30;9.73;;;5.55;;
20251;SDS011;10284;58.364;15.550;2022-10-16T07:11:03;16.88;;;6.22;;
20251;SDS011;10284;58.364;15.550;2022-10-16T07:13:29;11.50;;;5.10;;
20251;SDS011;10284;58.364;15.550;2022-10-16T07:15:55;9.77;;;5.20;;
20251;SDS011;10284;58.364;15.550;2022-10-16T07:18:20;10.13;;;4.90;;
20251;SDS011;10284;58.364;15.550;2022-10-16T07:20:46;11.18;;;5.45;;
20251;SDS011;10284;58.364;15.550;2022-10-16T07:23:12;8.38;;;4.60;;
20251;SDS011;10284;58.364;15.550;2022-10-16T07:25:37;9.43;;;5.40;;
20251;SDS011;10284;58.364;15.550;2022-10-16T07:28:03;9.80;;;5.90;;
20251;SDS011;10284;58.364;15.550;2022-10-16T07:30:28;12.25;;;6.25;;
20251;SDS011;10284;58.364;15.550;2022-10-16T07:32:53;9.55;;;5.72;;
20251;SDS011;10284;58.364;15.550;2022-10-16T07:35:19;9.30;;;5.80;;
20251;SDS011;10284;58.364;15.550;2022-10-16T07:37:45;9.10;;;5.90;;
20251;SDS011;10284;58.364;15.550;2022-10-16T07:40:11;8.63;;;6.20;;
20251;SDS011;10284;58.364;15.550;2022-10-16T07:42:37;8.27;;;5.80;;
20251;SDS011;10284;58.364;15.550;2022-10-16T07:45:02;11.82;;;6.38;;
20251;SDS011;10284;58.364;15.550;2022-10-16T07:47:28;11.07;;;6.30;;
20251;SDS011;10284;58.364;15.550;2022-10-16T07:49:53;8.18;;;6.03;;
20251;SDS011;10284;58.364;15.550;2022-10-16T07:52:18;9.23;;;5.85;;
20251;SDS011;10284;58.364;15.550;2022-10-16T07:54:44;8.68;;;5.20;;
20251;SDS011;10284;58.364;15.550;2022-10-16T07:57:09;11.82;;;5.40;;
20251;SDS011;10284;58.364;15.550;2022-10-16T07:59:35;7.82;;;5.25;;
20251;SDS011;10284;58.364;15.550;2022-10-16T08:02:00;10.93;;;5.10;;
20251;SDS011;10284;58.364;15.550;2022-10-16T08:04:25;12.00;;;5.63;;
20251;SDS011;10284;58.364;15.550;2022-10-16T08:06:51;12.05;;;6.03;;
20251;SDS011;10284;58.364;15.550;2022-10-16T08:09:16;7.00;;;4.97;;
20251;SDS011;10284;58.364;15.550;2022-10-16T08:11:42;7.28;;;5.53;;
20251;SDS011;10284;58.364;15.550;2022-10-16T08:14:07;10.25;;;4.88;;
20251;SDS011;10284;58.364;15.550;2022-10-16T08:16:32;6.82;;;4.85;;
20251;SDS011;10284;58.364;15.550;2022-10-16T08:18:58;9.82;;;5.05;;
20251;SDS011;10284;58.364;15.550;2022-10-16T08:21:23;8.55;;;5.25;;
20251;SDS011;10284;58.364;15.550;2022-10-16T08:23:49;7.25;;;4.93;;
20251;SDS011;10284;58.364;15.550;2022-10-16T08:26:15;10.20;;;5.00;;
20251;SDS011;10284;58.364;15.550;2022-10-16T08:28:40;9.00;;;4.65;;
20251;SDS011;10284;58.364;15.550;2022-10-16T08:31:10;8.18;;;4.35;;
20251;SDS011;10284;58.364;15.550;2022-10-16T08:33:37;7.97;;;5.10;;
20251;SDS011;10284;58.364;15.550;2022-10-16T08:36:04;6.88;;;4.43;;
20251;SDS011;10284;58.364;15.550;2022-10-16T08:38:30;10.73;;;4.40;;
20251;SDS011;10284;58.364;15.550;2022-10-16T08:49:43;7.28;;;4.00;;
20251;SDS011;10284;58.364;15.550;2022-10-16T08:52:19;10.07;;;4.22;;
20251;SDS011;10284;58.364;15.550;2022-10-16T08:54:45;11.07;;;4.65;;
20251;SDS011;10284;58.364;15.550;2022-10-16T08:57:14;7.45;;;4.40;;
20251;SDS011;10284;58.364;15.550;2022-10-16T08:59:42;8.13;;;4.10;;
20251;SDS011;10284;58.364;15.550;2022-10-16T09:02:44;7.80;;;4.25;;
20251;SDS011;10284;58.364;15.550;2022-10-16T09:08:03;8.15;;;4.25;;
20251;SDS011;10284;58.364;15.550;2022-10-16T09:13:52;11.93;;;4.13;;
20251;SDS011;10284;58.364;15.550;2022-10-16T09:16:23;8.13;;;3.90;;
20251;SDS011;10284;58.364;15.550;2022-10-16T09:21:46;10.82;;;3.55;;
20251;SDS011;10284;58.364;15.550;2022-10-16T09:24:19;6.18;;;3.65;;
20251;SDS011;10284;58.364;15.550;2022-10-16T09:26:46;8.07;;;3.45;;
20251;SDS011;10284;58.364;15.550;2022-10-16T09:29:19;10.18;;;3.42;;
20251;SDS011;10284;58.364;15.550;2022-10-16T09:31:45;7.95;;;3.60;;
20251;SDS011;10284;58.364;15.550;2022-10-16T09:34:32;5.97;;;3.70;;
20251;SDS011;10284;58.364;15.550;2022-10-16T09:36:58;5.78;;;3.55;;
20251;SDS011;10284;58.364;15.550;2022-10-16T09:39:24;5.93;;;3.05;;
20251;SDS011;10284;58.364;15.550;2022-10-16T09:41:50;8.20;;;2.95;;
20251;SDS011;10284;58.364;15.550;2022-10-16T09:47:12;7.22;;;3.58;;
20251;SDS011;10284;58.364;15.550;2022-10-16T09:49:49;5.43;;;2.90;;
20251;SDS011;10284;58.364;15.550;2022-10-16T09:52:19;5.10;;;3.08;;
20251;SDS011;10284;58.364;15.550;2022-10-16T09:55:12;7.15;;;2.95;;
20251;SDS011;10284;58.364;15.550;2022-10-16T09:57:53;4.43;;;2.90;;
20251;SDS011;10284;58.364;15.550;2022-10-16T10:00:19;6.57;;;2.90;;
20251;SDS011;10284;58.364;15.550;2022-10-16T10:02:46;6.80;;;3.25;;
20251;SDS011;10284;58.364;15.550;2022-10-16T10:05:19;5.78;;;2.90;;
20251;SDS011;10284;58.364;15.550;2022-10-16T10:07:52;8.88;;;3.47;;
20251;SDS011;10284;58.364;15.550;2022-10-16T10:10:32;7.97;;;3.17;;
20251;SDS011;10284;58.364;15.550;2022-10-16T10:12:59;6.40;;;3.05;;
20251;SDS011;10284;58.364;15.550;2022-10-16T10:15:25;5.65;;;3.20;;
20251;SDS011;10284;58.364;15.550;2022-10-16T10:17:56;6.03;;;3.28;;
20251;SDS011;10284;58.364;15.550;2022-10-16T10:20:27;8.20;;;2.67;;
20251;SDS011;10284;58.364;15.550;2022-10-16T10:22:54;5.15;;;2.80;;
20251;SDS011;10284;58.364;15.550;2022-10-16T10:46:11;5.70;;;2.40;;
20251;SDS011;10284;58.364;15.550;2022-10-16T10:49:02;10.43;;;2.50;;
20251;SDS011;10284;58.364;15.550;2022-10-16T11:03:08;6.43;;;2.60;;
20251;SDS011;10284;58.364;15.550;2022-10-16T11:05:44;5.03;;;2.58;;
20251;SDS011;10284;58.364;15.550;2022-10-16T11:08:17;8.30;;;2.10;;
20251;SDS011;10284;58.364;15.550;2022-10-16T11:16:01;5.18;;;2.67;;
20251;SDS011;10284;58.364;15.550;2022-10-16T11:21:18;7.55;;;2.10;;
20251;SDS011;10284;58.364;15.550;2022-10-16T11:23:59;7.28;;;2.30;;
20251;SDS011;10284;58.364;15.550;2022-10-16T11:26:28;5.35;;;2.20;;
20251;SDS011;10284;58.364;15.550;2022-10-16T11:28:59;11.00;;;2.35;;
20251;SDS011;10284;58.364;15.550;2022-10-16T11:36:42;7.03;;;2.20;;
20251;SDS011;10284;58.364;15.550;2022-10-16T11:41:49;19.13;;;11.10;;
20251;SDS011;10284;58.364;15.550;2022-10-16T11:46:52;18.77;;;9.33;;
20251;SDS011;10284;58.364;15.550;2022-10-16T11:49:33;8.10;;;4.50;;
20251;SDS011;10284;58.364;15.550;2022-10-16T11:54:54;5.40;;;1.83;;
20251;SDS011;10284;58.364;15.550;2022-10-16T11:57:29;6.93;;;2.22;;
20251;SDS011;10284;58.364;15.550;2022-10-16T11:59:58;8.07;;;2.40;;
20251;SDS011;10284;58.364;15.550;2022-10-16T12:08:14;7.18;;;2.25;;
20251;SDS011;10284;58.364;15.550;2022-10-16T12:10:41;7.60;;;1.83;;
20251;SDS011;10284;58.364;15.550;2022-10-16T12:16:03;8.40;;;1.97;;
20251;SDS011;10284;58.364;15.550;2022-10-16T12:18:29;5.13;;;1.77;;
20251;SDS011;10284;58.364;15.550;2022-10-16T12:20:55;4.93;;;2.05;;
20251;SDS011;10284;58.364;15.550;2022-10-16T12:23:29;8.38;;;2.20;;
20251;SDS011;10284;58.364;15.550;2022-10-16T12:25:55;8.50;;;1.80;;
20251;SDS011;10284;58.364;15.550;2022-10-16T12:28:22;6.55;;;2.53;;
20251;SDS011;10284;58.364;15.550;2022-10-16T12:31:04;6.85;;;2.20;;
20251;SDS011;10284;58.364;15.550;2022-10-16T12:33:35;8.68;;;2.83;;
20251;SDS011;10284;58.364;15.550;2022-10-16T12:36:44;7.18;;;2.00;;
20251;SDS011;10284;58.364;15.550;2022-10-16T12:38:57;8.40;;;2.13;;
20251;SDS011;10284;58.364;15.550;2022-10-16T12:43:55;7.75;;;2.03;;
20251;SDS011;10284;58.364;15.550;2022-10-16T12:46:23;5.45;;;1.80;;
20251;SDS011;10284;58.364;15.550;2022-10-16T12:51:38;6.50;;;1.80;;
20251;SDS011;10284;58.364;15.550;2022-10-16T12:54:11;6.72;;;2.05;;
20251;SDS011;10284;58.364;15.550;2022-10-16T13:02:23;8.93;;;1.92;;
20251;SDS011;10284;58.364;15.550;2022-10-16T13:18:28;13.43;;;1.77;;
20251;SDS011;10284;58.364;15.550;2022-10-16T13:29:37;11.52;;;2.28;;
20251;SDS011;10284;58.364;15.550;2022-10-16T13:32:06;8.68;;;1.95;;
20251;SDS011;10284;58.364;15.550;2022-10-16T13:34:41;9.90;;;1.85;;
20251;SDS011;10284;58.364;15.550;2022-10-16T13:37:16;8.55;;;1.35;;
20251;SDS011;10284;58.364;15.550;2022-10-16T13:39:43;2.95;;;1.30;;
20251;SDS011;10284;58.364;15.550;2022-10-16T13:47:17;4.32;;;1.30;;
20251;SDS011;10284;58.364;15.550;2022-10-16T13:50:04;6.85;;;1.40;;
20251;SDS011;10284;58.364;15.550;2022-10-16T13:52:31;3.90;;;1.20;;
20251;SDS011;10284;58.364;15.550;2022-10-16T13:54:57;3.20;;;0.90;;
20251;SDS011;10284;58.364;15.550;2022-10-16T13:57:23;7.20;;;1.50;;
20251;SDS011;10284;58.364;15.550;2022-10-16T13:59:49;2.70;;;0.93;;
20251;SDS011;10284;58.364;15.550;2022-10-16T14:02:25;5.63;;;1.20;;
20251;SDS011;10284;58.364;15.550;2022-10-16T14:04:52;4.50;;;0.80;;
20251;SDS011;10284;58.364;15.550;2022-10-16T14:07:28;2.88;;;0.85;;
20251;SDS011;10284;58.364;15.550;2022-10-16T14:09:56;5.07;;;1.00;;
20251;SDS011;10284;58.364;15.550;2022-10-16T14:12:27;2.80;;;0.73;;
20251;SDS011;10284;58.364;15.550;2022-10-16T14:14:53;3.83;;;0.95;;
20251;SDS011;10284;58.364;15.550;2022-10-16T14:17:21;3.25;;;0.90;;
20251;SDS011;10284;58.364;15.550;2022-10-16T14:19:48;4.55;;;0.68;;
20251;SDS011;10284;58.364;15.550;2022-10-16T14:22:27;2.50;;;0.95;;
20251;SDS011;10284;58.364;15.550;2022-10-16T14:24:54;3.22;;;0.77;;
20251;SDS011;10284;58.364;15.550;2022-10-16T14:27:41;5.35;;;0.75;;
20251;SDS011;10284;58.364;15.550;2022-10-16T14:32:54;6.00;;;1.00;;
20251;SDS011;10284;58.364;15.550;2022-10-16T14:35:30;3.63;;;0.55;;
20251;SDS011;10284;58.364;15.550;2022-10-16T14:37:57;2.70;;;0.80;;
20251;SDS011;10284;58.364;15.550;2022-10-16T14:40:25;4.43;;;0.88;;
20251;SDS011;10284;58.364;15.550;2022-10-16T14:42:52;4.05;;;0.75;;
20251;SDS011;10284;58.364;15.550;2022-10-16T14:45:19;2.42;;;0.60;;
20251;SDS011;10284;58.364;15.550;2022-10-16T14:47:47;1.85;;;0.40;;
20251;SDS011;10284;58.364;15.550;2022-10-16T14:50:14;4.30;;;0.80;;
20251;SDS011;10284;58.364;15.550;2022-10-16T14:52:40;2.05;;;0.40;;
20251;SDS011;10284;58.364;15.550;2022-10-16T14:55:05;0.93;;;0.40;;
20251;SDS011;10284;58.364;15.550;2022-10-16T14:57:32;3.00;;;0.60;;
20251;SDS011;10284;58.364;15.550;2022-10-16T14:59:58;2.70;;;0.60;;
20251;SDS011;10284;58.364;15.550;2022-10-16T15:02:28;0.95;;;0.40;;
20251;SDS011;10284;58.364;15.550;2022-10-16T15:04:55;2.25;;;0.95;;
20251;SDS011;10284;58.364;15.550;2022-10-16T15:07:20;0.60;;;0.32;;
20251;SDS011;10284;58.364;15.550;2022-10-16T15:09:46;3.50;;;0.65;;
20251;SDS011;10284;58.364;15.550;2022-10-16T15:12:12;2.13;;;0.50;;
20251;SDS011;10284;58.364;15.550;2022-10-16T15:14:37;1.38;;;0.60;;
20251;SDS011;10284;58.364;15.550;2022-10-16T15:17:03;4.70;;;0.50;;
20251;SDS011;10284;58.364;15.550;2022-10-16T15:19:30;1.83;;;0.47;;
20251;SDS011;10284;58.364;15.550;2022-10-16T15:21:55;1.02;;;0.50;;
20251;SDS011;10284;58.364;15.550;2022-10-16T15:24:21;2.28;;;0.50;;
20251;SDS011;10284;58.364;15.550;2022-10-16T15:26:46;1.05;;;0.30;;
20251;SDS011;10284;58.364;15.550;2022-10-16T15:29:12;3.17;;;0.50;;
20251;SDS011;10284;58.364;15.550;2022-10-16T15:31:38;1.95;;;0.40;;
20251;SDS011;10284;58.364;15.550;2022-10-16T15:34:03;2.85;;;0.60;;
20251;SDS011;10284;58.364;15.550;2022-10-16T15:36:32;1.25;;;0.40;;
20251;SDS011;10284;58.364;15.550;2022-10-16T15:39:01;2.95;;;0.50;;
20251;SDS011;10284;58.364;15.550;2022-10-16T15:41:47;0.65;;;0.30;;
20251;SDS011;10284;58.364;15.550;2022-10-16T15:44:16;2.58;;;0.60;;
20251;SDS011;10284;58.364;15.550;2022-10-16T15:46:42;2.08;;;0.40;;
20251;SDS011;10284;58.364;15.550;2022-10-16T15:49:07;2.00;;;0.45;;
20251;SDS011;10284;58.364;15.550;2022-10-16T15:51:34;2.53;;;0.50;;
20251;SDS011;10284;58.364;15.550;2022-10-16T15:54:03;1.67;;;0.50;;
20251;SDS011;10284;58.364;15.550;2022-10-16T15:56:28;2.47;;;0.50;;
20251;SDS011;10284;58.364;15.550;2022-10-16T15:58:54;0.95;;;0.45;;
20251;SDS011;10284;58.364;15.550;2022-10-16T16:01:19;6.00;;;0.50;;
20251;SDS011;10284;58.364;15.550;2022-10-16T16:03:45;6.38;;;0.70;;
20251;SDS011;10284;58.364;15.550;2022-10-16T16:06:11;0.52;;;0.40;;
20251;SDS011;10284;58.364;15.550;2022-10-16T16:08:37;2.05;;;0.55;;
20251;SDS011;10284;58.364;15.550;2022-10-16T16:11:10;3.38;;;0.70;;
20251;SDS011;10284;58.364;15.550;2022-10-16T16:13:36;1.65;;;0.55;;
20251;SDS011;10284;58.364;15.550;2022-10-16T16:16:13;2.83;;;0.60;;
20251;SDS011;10284;58.364;15.550;2022-10-16T16:18:39;3.47;;;0.60;;
20251;SDS011;10284;58.364;15.550;2022-10-16T16:21:05;2.55;;;0.85;;
20251;SDS011;10284;58.364;15.550;2022-10-16T16:23:31;4.40;;;0.80;;
20251;SDS011;10284;58.364;15.550;2022-10-16T16:26:03;4.97;;;0.75;;
20251;SDS011;10284;58.364;15.550;2022-10-16T16:28:30;7.60;;;1.23;;
20251;SDS011;10284;58.364;15.550;2022-10-16T16:30:55;4.57;;;0.85;;
20251;SDS011;10284;58.364;15.550;2022-10-16T16:33:21;3.85;;;0.70;;
20251;SDS011;10284;58.364;15.550;2022-10-16T16:35:46;3.80;;;0.80;;
20251;SDS011;10284;58.364;15.550;2022-10-16T16:38:11;2.17;;;0.60;;
20251;SDS011;10284;58.364;15.550;2022-10-16T16:40:37;9.02;;;1.00;;
20251;SDS011;10284;58.364;15.550;2022-10-16T16:43:02;6.60;;;0.88;;
20251;SDS011;10284;58.364;15.550;2022-10-16T16:45:29;5.63;;;1.20;;
20251;SDS011;10284;58.364;15.550;2022-10-16T16:47:54;5.18;;;1.13;;
20251;SDS011;10284;58.364;15.550;2022-10-16T16:50:19;8.63;;;1.10;;
20251;SDS011;10284;58.364;15.550;2022-10-16T16:52:45;6.10;;;1.20;;
20251;SDS011;10284;58.364;15.550;2022-10-16T16:55:10;4.03;;;1.40;;
20251;SDS011;10284;58.364;15.550;2022-10-16T16:57:35;6.40;;;1.33;;
20251;SDS011;10284;58.364;15.550;2022-10-16T17:00:01;6.75;;;2.47;;
20251;SDS011;10284;58.364;15.550;2022-10-16T17:02:26;8.35;;;1.45;;
20251;SDS011;10284;58.364;15.550;2022-10-16T17:04:52;7.45;;;1.33;;
20251;SDS011;10284;58.364;15.550;2022-10-16T17:07:18;9.23;;;1.48;;